createdAt,value
2023-02-08T00:00:52.495Z,58.50
2023-02-08T00:03:20.360Z,55.70
2023-02-08T00:05:48.417Z,67.00
2023-02-08T00:08:16.880Z,53.80
2023-02-08T00:10:44.740Z,55.00
2023-02-08T00:13:12.652Z,62.00
2023-02-08T00:15:44.806Z,56.40
2023-02-08T00:18:14.408Z,53.90
2023-02-08T00:20:42.724Z,63.80
2023-02-08T00:23:12.079Z,64.90
2023-02-08T00:25:40.684Z,58.70
2023-02-08T00:28:11.670Z,49.10
2023-02-08T00:30:39.853Z,47.90
2023-02-08T00:33:09.121Z,52.40
2023-02-08T00:35:38.082Z,50.70
2023-02-08T00:38:05.941Z,57.70
2023-02-08T00:40:34.200Z,67.20
2023-02-08T00:43:02.829Z,75.70
2023-02-08T00:45:32.573Z,68.50
2023-02-08T00:48:00.471Z,79.80
2023-02-08T00:50:28.471Z,79.10
2023-02-08T00:52:59.419Z,80.80
2023-02-08T00:55:27.370Z,81.30
2023-02-08T00:57:55.313Z,82.20
2023-02-08T01:00:23.786Z,77.50
2023-02-08T01:02:52.058Z,79.30
2023-02-08T01:05:20.166Z,83.80
2023-02-08T01:07:48.336Z,88.50
2023-02-08T01:10:16.347Z,70.40
2023-02-08T01:12:46.715Z,74.10
2023-02-08T01:15:14.991Z,73.20
2023-02-08T01:17:46.306Z,80.00
2023-02-08T01:20:14.179Z,84.50
2023-02-08T01:22:42.144Z,72.90
2023-02-08T01:25:11.276Z,59.60
2023-02-08T01:27:39.888Z,67.00
2023-02-08T01:30:08.649Z,58.40
2023-02-08T01:32:37.011Z,57.30
2023-02-08T01:35:06.103Z,58.60
2023-02-08T01:37:34.747Z,58.80
2023-02-08T01:40:04.319Z,68.40
2023-02-08T01:42:32.399Z,79.80
2023-02-08T01:45:23.577Z,80.80
2023-02-08T01:48:09.616Z,82.40
2023-02-08T01:50:52.048Z,78.90
2023-02-08T01:53:20.166Z,78.40
2023-02-08T01:55:49.835Z,78.00
2023-02-08T01:58:17.993Z,74.00
2023-02-08T02:00:46.455Z,85.60
2023-02-08T02:03:14.853Z,90.90
2023-02-08T02:05:50.242Z,87.40
2023-02-08T02:10:49.341Z,77.50
2023-02-08T02:13:22.211Z,65.70
2023-02-08T02:15:50.343Z,63.60
2023-02-08T02:18:26.524Z,65.90
2023-02-08T02:21:08.150Z,71.40
2023-02-08T02:23:48.418Z,68.00
2023-02-08T02:26:44.413Z,69.50
2023-02-08T02:29:40.120Z,70.40
2023-02-08T02:32:26.417Z,70.80
2023-02-08T02:35:12.772Z,70.70
2023-02-08T02:37:49.598Z,75.90
2023-02-08T02:40:23.621Z,65.40
2023-02-08T02:43:35.081Z,73.30
2023-02-08T02:46:07.806Z,65.70
2023-02-08T02:49:01.083Z,69.40
2023-02-08T02:51:52.149Z,69.70
2023-02-08T02:54:23.474Z,68.50
2023-02-08T02:56:53.902Z,80.10
2023-02-08T02:59:21.675Z,87.00
2023-02-08T03:01:49.693Z,107.80
2023-02-08T03:04:32.927Z,115.50
2023-02-08T03:07:19.713Z,111.50
2023-02-08T03:10:16.046Z,125.70
2023-02-08T03:13:18.056Z,111.40
2023-02-08T03:16:00.758Z,132.10
2023-02-08T03:19:00.070Z,130.60
2023-02-08T03:21:51.357Z,119.80
2023-02-08T03:24:45.589Z,101.60
2023-02-08T03:27:40.785Z,93.10
2023-02-08T03:30:32.049Z,102.90
2023-02-08T03:33:03.194Z,102.50
2023-02-08T03:38:11.566Z,87.20
2023-02-08T03:40:42.681Z,86.70
2023-02-08T03:43:23.903Z,90.00
2023-02-08T03:45:55.552Z,87.30
2023-02-08T03:50:52.466Z,90.70
2023-02-08T03:53:22.061Z,99.50
2023-02-08T03:55:51.955Z,88.00
2023-02-08T03:58:23.381Z,83.60
2023-02-08T04:01:14.096Z,79.00
2023-02-08T04:03:42.336Z,82.80
2023-02-08T04:06:10.340Z,101.20
2023-02-08T04:08:38.225Z,82.80
2023-02-08T04:11:09.054Z,81.70
2023-02-08T04:13:37.996Z,80.20
2023-02-08T04:16:06.296Z,80.40
2023-02-08T04:18:34.859Z,85.80
2023-02-08T04:21:04.010Z,85.00
2023-02-08T04:23:32.739Z,96.00
2023-02-08T04:26:00.627Z,106.80
2023-02-08T04:28:28.638Z,112.90
2023-02-08T04:30:57.210Z,106.80
2023-02-08T04:33:25.642Z,110.30
2023-02-08T04:35:53.970Z,130.40
2023-02-08T04:38:21.831Z,128.80
2023-02-08T04:40:49.901Z,106.20
2023-02-08T04:43:17.970Z,86.00
2023-02-08T04:45:45.824Z,67.10
2023-02-08T04:48:13.820Z,77.00
2023-02-08T04:50:42.373Z,81.90
2023-02-08T04:53:10.763Z,82.40
2023-02-08T04:55:38.805Z,82.00
2023-02-08T04:58:09.076Z,82.30
2023-02-08T05:00:37.830Z,72.60
2023-02-08T05:03:06.373Z,84.60
2023-02-08T05:05:34.406Z,75.90
2023-02-08T05:08:02.851Z,72.30
2023-02-08T05:10:30.862Z,75.60
2023-02-08T05:12:59.028Z,74.40
2023-02-08T05:15:27.042Z,76.70
2023-02-08T05:17:54.986Z,64.50
2023-02-08T05:20:22.812Z,71.10
2023-02-08T05:22:50.972Z,84.20
2023-02-08T05:25:18.905Z,83.30
2023-02-08T05:27:46.915Z,87.80
2023-02-08T05:30:14.786Z,93.10
2023-02-08T05:32:42.763Z,86.70
2023-02-08T05:35:10.617Z,87.40
2023-02-08T05:37:38.677Z,74.60
2023-02-08T05:40:07.128Z,74.50
2023-02-08T05:42:36.047Z,67.50
2023-02-08T05:45:04.747Z,74.90
2023-02-08T05:47:33.436Z,82.80
2023-02-08T05:50:01.327Z,74.40
2023-02-08T05:52:29.772Z,64.30
2023-02-08T05:54:59.102Z,66.60
2023-02-08T05:57:28.346Z,69.10
2023-02-08T05:59:57.527Z,77.70
2023-02-08T06:02:25.676Z,71.20
2023-02-08T06:04:53.524Z,62.60
2023-02-08T06:07:21.730Z,62.90
2023-02-08T06:09:50.512Z,61.10
2023-02-08T06:12:19.067Z,58.50
2023-02-08T06:14:49.198Z,54.50
2023-02-08T06:17:17.071Z,62.60
2023-02-08T06:19:45.202Z,76.30
2023-02-08T06:22:13.255Z,82.00
2023-02-08T06:24:41.349Z,85.30
2023-02-08T06:27:09.585Z,86.40
2023-02-08T06:29:37.484Z,89.20
2023-02-08T06:32:05.713Z,103.50
2023-02-08T06:34:33.765Z,112.60
2023-02-08T06:37:02.381Z,107.80
2023-02-08T06:39:30.340Z,123.90
2023-02-08T06:41:58.432Z,128.10
2023-02-08T06:44:26.485Z,132.80
2023-02-08T06:46:54.487Z,125.60
2023-02-08T06:49:22.536Z,139.70
2023-02-08T06:51:50.963Z,138.40
2023-02-08T06:54:19.137Z,149.60
2023-02-08T06:56:47.000Z,143.70
2023-02-08T06:59:14.895Z,146.70
2023-02-08T07:01:42.791Z,148.40
2023-02-08T07:04:10.816Z,116.40
2023-02-08T07:06:39.349Z,119.20
2023-02-08T07:09:07.359Z,110.10
2023-02-08T07:11:36.179Z,111.30
2023-02-08T07:14:10.544Z,134.30
2023-02-08T07:16:44.546Z,127.50
2023-02-08T07:19:13.020Z,126.80
2023-02-08T07:21:42.136Z,126.40
2023-02-08T07:24:10.553Z,135.10
2023-02-08T07:26:38.462Z,135.80
2023-02-08T07:29:06.851Z,131.90
2023-02-08T07:31:42.556Z,153.80
2023-02-08T07:34:14.281Z,126.10
2023-02-08T07:36:53.098Z,116.90
2023-02-08T07:39:21.654Z,124.70
2023-02-08T07:41:49.787Z,112.40
2023-02-08T07:44:17.849Z,120.20
2023-02-08T07:46:45.712Z,128.90
2023-02-08T07:49:13.626Z,111.40
2023-02-08T07:51:41.432Z,111.80
2023-02-08T07:54:09.717Z,99.90
2023-02-08T07:56:37.821Z,116.30
2023-02-08T07:59:06.167Z,108.90
2023-02-08T08:01:36.547Z,95.70
2023-02-08T08:04:04.778Z,106.00
2023-02-08T08:06:33.160Z,94.10
2023-02-08T08:09:01.715Z,100.40
2023-02-08T08:11:29.994Z,106.70
2023-02-08T08:13:58.770Z,100.60
2023-02-08T08:16:26.891Z,113.80
2023-02-08T08:18:54.825Z,120.00
2023-02-08T08:21:22.741Z,116.30
2023-02-08T08:23:50.822Z,104.20
2023-02-08T08:26:20.085Z,117.20
2023-02-08T08:28:52.409Z,112.20
2023-02-08T08:31:21.569Z,108.30
2023-02-08T08:33:49.649Z,115.50
2023-02-08T08:36:18.454Z,102.60
2023-02-08T08:38:46.611Z,100.40
2023-02-08T08:41:17.929Z,90.10
2023-02-08T08:46:15.206Z,78.00
2023-02-08T08:48:43.534Z,82.20
2023-02-08T08:51:11.563Z,98.80
2023-02-08T08:53:39.971Z,91.70
2023-02-08T08:56:08.125Z,87.80
2023-02-08T08:58:36.475Z,86.60
2023-02-08T09:01:04.590Z,88.10
2023-02-08T09:03:32.836Z,80.20
2023-02-08T09:06:01.606Z,76.00
2023-02-08T09:08:29.760Z,83.10
2023-02-08T09:11:03.574Z,84.90
2023-02-08T09:13:32.404Z,87.50
2023-02-08T09:16:09.104Z,94.00
2023-02-08T09:18:37.063Z,113.70
2023-02-08T09:21:06.823Z,93.90
2023-02-08T09:23:34.770Z,84.10
2023-02-08T09:26:08.861Z,77.30
2023-02-08T09:28:38.092Z,83.40
2023-02-08T09:31:09.255Z,89.70
2023-02-08T09:36:06.030Z,85.70
2023-02-08T09:38:34.840Z,79.20
2023-02-08T09:41:42.852Z,67.30
2023-02-08T09:44:29.427Z,68.90
2023-02-08T09:47:02.128Z,68.80
2023-02-08T09:49:33.001Z,63.40
2023-02-08T09:52:03.083Z,60.80
2023-02-08T09:54:39.900Z,56.90
2023-02-08T09:57:14.319Z,50.60
2023-02-08T09:59:51.477Z,51.10
2023-02-08T10:02:26.511Z,43.90
2023-02-08T10:05:05.959Z,41.60
2023-02-08T10:07:34.237Z,41.10
2023-02-08T10:10:05.367Z,43.90
2023-02-08T10:12:45.572Z,43.00
2023-02-08T10:15:24.602Z,42.10
2023-02-08T10:18:19.054Z,45.80
2023-02-08T10:21:14.084Z,48.60
2023-02-08T10:24:08.571Z,45.90
2023-02-08T10:26:38.772Z,43.30
2023-02-08T10:29:45.909Z,41.80
2023-02-08T10:32:39.092Z,48.60
2023-02-08T10:35:12.312Z,40.70
2023-02-08T10:37:41.853Z,40.10
2023-02-08T10:40:18.935Z,45.00
2023-02-08T10:43:01.014Z,41.60
2023-02-08T10:45:32.634Z,39.60
2023-02-08T10:48:03.259Z,35.40
2023-02-08T10:50:36.301Z,38.90
2023-02-08T10:53:04.852Z,41.10
2023-02-08T10:55:36.196Z,38.50
2023-02-08T10:58:13.556Z,36.40
2023-02-08T11:00:41.725Z,37.20
2023-02-08T11:03:19.169Z,39.90
2023-02-08T11:05:47.404Z,35.90
2023-02-08T11:08:19.982Z,32.80
2023-02-08T11:10:57.493Z,41.70
2023-02-08T11:13:31.888Z,40.30
2023-02-08T11:16:00.957Z,36.60
2023-02-08T11:18:33.180Z,35.70
2023-02-08T11:21:10.623Z,37.40
2023-02-08T11:23:42.594Z,37.30
2023-02-08T11:26:33.814Z,43.30
2023-02-08T11:29:03.286Z,40.20
2023-02-08T11:31:32.429Z,40.00
2023-02-08T11:34:05.258Z,44.50
2023-02-08T11:36:34.476Z,49.70
2023-02-08T11:39:14.815Z,51.80
2023-02-08T11:41:46.713Z,53.20
2023-02-08T11:44:20.834Z,51.30
2023-02-08T11:46:49.018Z,53.60
2023-02-08T11:49:39.575Z,52.00
2023-02-08T11:52:20.093Z,40.90
2023-02-08T11:54:48.326Z,45.30
2023-02-08T11:57:19.288Z,49.60
2023-02-08T11:59:47.997Z,42.50
2023-02-08T12:02:36.487Z,36.00
2023-02-08T12:05:10.110Z,39.60
2023-02-08T12:07:56.979Z,42.30
2023-02-08T12:10:58.594Z,41.60
2023-02-08T12:13:47.607Z,48.10
2023-02-08T12:16:37.466Z,81.40
2023-02-08T12:19:24.215Z,66.60
2023-02-08T12:22:14.051Z,53.90
2023-02-08T12:24:48.222Z,56.30
2023-02-08T12:27:46.598Z,48.50
2023-02-08T12:30:21.714Z,48.80
2023-02-08T12:33:29.463Z,42.60
2023-02-08T12:36:04.645Z,48.90
2023-02-08T12:39:47.544Z,50.10
2023-02-08T12:42:50.423Z,42.20
2023-02-08T12:45:27.974Z,41.10
2023-02-08T12:48:05.514Z,42.40
2023-02-08T12:50:48.557Z,50.60
2023-02-08T12:53:37.977Z,56.20
2023-02-08T12:56:08.342Z,47.50
2023-02-08T12:59:01.964Z,43.70
2023-02-08T13:01:44.122Z,34.70
2023-02-08T13:04:17.380Z,33.20
2023-02-08T13:06:52.010Z,36.40
2023-02-08T13:09:22.700Z,38.10
2023-02-08T13:12:00.145Z,39.80
2023-02-08T13:14:35.810Z,39.80
2023-02-08T13:17:24.050Z,40.70
2023-02-08T13:20:07.134Z,41.80
2023-02-08T13:22:37.346Z,48.00
2023-02-08T13:25:08.511Z,48.90
2023-02-08T13:27:37.786Z,53.90
2023-02-08T13:30:06.298Z,49.30
2023-02-08T13:32:44.054Z,38.60
2023-02-08T13:35:14.494Z,39.30
2023-02-08T13:37:42.594Z,37.30
2023-02-08T13:40:16.908Z,39.70
2023-02-08T13:42:51.358Z,31.80
2023-02-08T13:45:34.378Z,56.40
2023-02-08T13:48:04.053Z,37.20
2023-02-08T13:50:35.245Z,45.70
2023-02-08T13:53:04.502Z,33.80
2023-02-08T13:55:33.692Z,34.80
2023-02-08T13:58:16.632Z,35.70
2023-02-08T14:00:53.768Z,37.10
2023-02-08T14:03:23.748Z,33.70
2023-02-08T14:06:20.741Z,39.50
2023-02-08T14:08:55.238Z,37.00
2023-02-08T14:11:52.207Z,36.10
2023-02-08T14:14:21.210Z,35.60
2023-02-08T14:17:04.770Z,34.00
2023-02-08T14:19:37.231Z,30.40
2023-02-08T14:22:07.086Z,36.80
2023-02-08T14:25:01.557Z,32.50
2023-02-08T14:27:39.928Z,43.90
2023-02-08T14:30:17.740Z,35.80
2023-02-08T14:33:08.156Z,30.40
2023-02-08T14:35:37.731Z,30.50
2023-02-08T14:38:23.718Z,34.90
2023-02-08T14:40:57.193Z,28.00
2023-02-08T14:43:35.634Z,39.40
2023-02-08T14:46:37.885Z,41.30
2023-02-08T14:49:16.927Z,38.40
2023-02-08T14:51:57.073Z,53.80
2023-02-08T14:54:32.736Z,57.60
2023-02-08T14:57:02.619Z,46.10
2023-02-08T14:59:32.029Z,45.90
2023-02-08T15:02:01.645Z,39.00
2023-02-08T15:04:29.908Z,56.50
2023-02-08T15:07:16.795Z,45.10
2023-02-08T15:09:44.959Z,37.50
2023-02-08T15:12:32.536Z,43.80
2023-02-08T15:15:02.563Z,37.30
2023-02-08T15:17:41.006Z,33.60
2023-02-08T15:20:17.961Z,35.20
2023-02-08T15:22:46.750Z,65.80
2023-02-08T15:25:31.888Z,50.80
2023-02-08T15:28:20.882Z,71.40
2023-02-08T15:31:00.158Z,49.20
2023-02-08T15:33:28.243Z,49.10
2023-02-08T15:36:01.392Z,59.00
2023-02-08T15:38:29.824Z,66.00
2023-02-08T15:41:11.016Z,70.20
2023-02-08T15:43:39.703Z,73.70
2023-02-08T15:46:25.935Z,70.80
2023-02-08T15:48:54.197Z,53.60
2023-02-08T15:51:24.266Z,56.60
2023-02-08T15:53:53.446Z,71.30
2023-02-08T15:56:35.817Z,70.30
2023-02-08T15:59:04.835Z,94.90
2023-02-08T16:01:34.523Z,80.10
2023-02-08T16:04:06.154Z,74.60
2023-02-08T16:06:39.389Z,71.50
2023-02-08T16:09:07.518Z,76.70
2023-02-08T16:11:35.681Z,72.70
2023-02-08T16:14:09.001Z,74.70
2023-02-08T16:16:48.433Z,72.40
2023-02-08T16:19:27.463Z,50.10
2023-02-08T16:22:16.987Z,43.70
2023-02-08T16:24:47.693Z,63.10
2023-02-08T16:27:29.346Z,57.50
2023-02-08T16:29:57.300Z,60.10
2023-02-08T16:32:29.701Z,59.30
2023-02-08T16:34:59.349Z,58.70
2023-02-08T16:37:33.648Z,69.20
2023-02-08T16:40:07.078Z,76.80
2023-02-08T16:42:36.950Z,110.30
2023-02-08T16:45:08.020Z,108.00
2023-02-08T16:47:36.907Z,111.30
2023-02-08T16:50:06.005Z,129.10
2023-02-08T16:52:34.301Z,126.70
2023-02-08T16:55:04.726Z,106.40
2023-02-08T16:57:46.666Z,99.50
2023-02-08T17:00:26.066Z,94.70
2023-02-08T17:02:54.299Z,89.40
2023-02-08T17:05:23.673Z,77.00
2023-02-08T17:07:51.822Z,82.00
2023-02-08T17:10:29.063Z,73.00
2023-02-08T17:13:13.392Z,69.50
2023-02-08T17:15:47.096Z,67.20
2023-02-08T17:18:15.267Z,70.90
2023-02-08T17:20:44.556Z,81.00
2023-02-08T17:23:12.963Z,68.60
2023-02-08T17:25:41.286Z,85.70
2023-02-08T17:28:14.789Z,129.60
2023-02-08T17:30:43.156Z,142.30
2023-02-08T17:33:19.912Z,160.60
2023-02-08T17:35:49.729Z,152.50
2023-02-08T17:38:18.674Z,199.40
2023-02-08T17:40:46.769Z,202.30
2023-02-08T17:43:14.985Z,148.10
2023-02-08T17:45:43.753Z,120.60
2023-02-08T17:48:13.547Z,117.00
2023-02-08T17:50:43.577Z,111.70
2023-02-08T17:53:11.877Z,119.80
2023-02-08T17:55:42.819Z,141.40
2023-02-08T17:58:11.716Z,152.20
2023-02-08T18:00:39.823Z,129.10
2023-02-08T18:03:07.830Z,137.90
2023-02-08T18:05:37.644Z,156.90
2023-02-08T18:08:06.744Z,144.40
2023-02-08T18:10:36.440Z,126.90
2023-02-08T18:13:04.498Z,93.60
2023-02-08T18:15:32.336Z,100.00
2023-02-08T18:18:00.476Z,117.00
2023-02-08T18:20:28.664Z,93.60
2023-02-08T18:22:56.507Z,90.50
2023-02-08T18:25:24.570Z,94.60
2023-02-08T18:27:52.679Z,118.00
2023-02-08T18:30:20.867Z,129.60
2023-02-08T18:32:49.133Z,148.00
2023-02-08T18:35:17.253Z,124.90
2023-02-08T18:37:46.514Z,141.60
2023-02-08T18:40:14.548Z,152.00
2023-02-08T18:42:43.971Z,162.10
2023-02-08T18:45:11.965Z,140.50
2023-02-08T18:47:40.288Z,117.00
2023-02-08T18:50:09.310Z,111.70
2023-02-08T18:52:38.010Z,108.10
2023-02-08T18:55:06.311Z,136.90
2023-02-08T18:57:38.852Z,149.70
2023-02-08T19:00:07.559Z,159.20
2023-02-08T19:02:39.348Z,163.40
2023-02-08T19:07:35.997Z,143.80
2023-02-08T19:10:04.482Z,151.40
2023-02-08T19:12:32.579Z,138.50
2023-02-08T19:15:00.452Z,153.40
2023-02-08T19:17:28.291Z,155.00
2023-02-08T19:19:57.461Z,160.90
2023-02-08T19:22:25.598Z,162.40
2023-02-08T19:24:54.278Z,155.50
2023-02-08T19:27:23.020Z,152.20
2023-02-08T19:29:56.124Z,140.40
2023-02-08T19:32:24.254Z,143.00
2023-02-08T19:34:52.323Z,146.00
2023-02-08T19:37:20.385Z,150.30
2023-02-08T19:39:48.455Z,151.00
2023-02-08T19:42:16.461Z,154.40
2023-02-08T19:44:45.013Z,166.40
2023-02-08T19:47:13.190Z,202.30
2023-02-08T19:49:41.069Z,200.50
2023-02-08T19:52:08.972Z,204.00
2023-02-08T19:54:37.946Z,182.40
2023-02-08T19:57:06.034Z,166.00
2023-02-08T19:59:35.365Z,153.40
2023-02-08T20:02:03.700Z,163.80
2023-02-08T20:04:32.800Z,140.20
2023-02-08T20:07:00.776Z,157.50
2023-02-08T20:09:29.637Z,160.40
2023-02-08T20:11:59.554Z,154.00
2023-02-08T20:14:32.956Z,117.70
2023-02-08T20:17:01.740Z,121.90
2023-02-08T20:19:29.880Z,123.50
2023-02-08T20:21:57.732Z,151.80
2023-02-08T20:24:25.722Z,154.80
2023-02-08T20:26:53.720Z,138.50
2023-02-08T20:29:22.691Z,146.90
2023-02-08T20:31:55.523Z,179.10
2023-02-08T20:34:23.928Z,159.80
2023-02-08T20:37:06.408Z,156.90
2023-02-08T20:39:36.279Z,160.30
2023-02-08T20:42:04.903Z,155.70
2023-02-08T20:44:33.031Z,146.40
2023-02-08T20:47:01.832Z,144.60
2023-02-08T20:49:32.097Z,169.10
2023-02-08T20:52:00.240Z,169.70
2023-02-08T20:54:28.261Z,160.10
2023-02-08T20:56:56.367Z,160.90
2023-02-08T20:59:24.498Z,172.00
2023-02-08T21:01:52.713Z,164.90
2023-02-08T21:04:23.411Z,159.80
2023-02-08T21:06:52.038Z,171.50
2023-02-08T21:09:20.280Z,208.70
2023-02-08T21:11:49.028Z,227.70
2023-02-08T21:14:21.381Z,231.10
2023-02-08T21:16:56.347Z,228.70
2023-02-08T21:19:26.040Z,217.70
2023-02-08T21:21:58.269Z,225.30
2023-02-08T21:24:26.335Z,208.30
2023-02-08T21:26:54.931Z,199.30
2023-02-08T21:29:23.329Z,184.40
2023-02-08T21:31:54.171Z,196.20
2023-02-08T21:34:23.026Z,139.50
2023-02-08T21:36:51.079Z,204.20
2023-02-08T21:39:20.316Z,197.40
2023-02-08T21:41:49.106Z,219.70
2023-02-08T21:44:17.563Z,193.10
2023-02-08T21:46:45.561Z,201.90
2023-02-08T21:49:32.470Z,197.00
2023-02-08T21:52:18.894Z,201.60
2023-02-08T21:54:46.842Z,189.10
2023-02-08T21:57:19.021Z,164.90
2023-02-08T21:59:48.615Z,190.00
2023-02-08T22:02:26.058Z,186.20
2023-02-08T22:04:55.371Z,176.30
2023-02-08T22:07:23.823Z,172.80
2023-02-08T22:09:52.621Z,175.80
2023-02-08T22:12:22.025Z,185.30
2023-02-08T22:14:51.097Z,186.80
2023-02-08T22:17:19.146Z,198.10
2023-02-08T22:19:47.731Z,204.00
2023-02-08T22:22:15.964Z,197.30
2023-02-08T22:24:43.874Z,208.90
2023-02-08T22:27:12.189Z,202.80
2023-02-08T22:29:40.176Z,190.50
2023-02-08T22:32:09.940Z,212.90
2023-02-08T22:34:38.345Z,215.80
2023-02-08T22:37:06.424Z,238.70
2023-02-08T22:39:35.721Z,244.40
2023-02-08T22:42:08.334Z,219.90
2023-02-08T22:44:36.242Z,232.40
2023-02-08T22:47:06.506Z,258.10
2023-02-08T22:49:34.883Z,247.20
2023-02-08T22:52:03.079Z,252.60
2023-02-08T22:54:31.328Z,206.40
2023-02-08T22:56:59.138Z,208.90
2023-02-08T22:59:27.088Z,192.60
2023-02-08T23:01:55.284Z,175.20
2023-02-08T23:04:23.373Z,170.70
2023-02-08T23:06:51.518Z,171.00
2023-02-08T23:09:19.419Z,175.60
2023-02-08T23:11:47.866Z,185.90
2023-02-08T23:14:16.889Z,180.20
2023-02-08T23:16:45.441Z,189.60
2023-02-08T23:19:17.250Z,203.10
2023-02-08T23:21:45.412Z,200.10
2023-02-08T23:24:13.437Z,194.10
2023-02-08T23:26:41.722Z,204.80
2023-02-08T23:29:09.986Z,194.60
2023-02-08T23:31:40.725Z,188.50
2023-02-08T23:34:11.360Z,207.00
2023-02-08T23:36:40.186Z,220.10
2023-02-08T23:39:08.158Z,208.20
2023-02-08T23:41:37.468Z,221.90
2023-02-08T23:44:05.537Z,228.90
2023-02-08T23:46:34.304Z,226.60
2023-02-08T23:49:02.476Z,215.00
2023-02-08T23:51:30.836Z,209.90
2023-02-08T23:53:58.770Z,208.20
2023-02-08T23:56:27.931Z,210.20
2023-02-08T23:58:57.462Z,214.10
